Time;durP1;ratioP1;P1;durP2;ratioP2;P2;SDS_P1;SDS_P2;PMS_P1;PMS_P2;Temp;Humidity;BMP_temperature;BMP_pressure;BME280_temperature;BME280_humidity;BME280_pressure;Samples;Min_cycle;Max_cycle;Signal;HPM_P1;HPM_P2
2022/10/30 00:02:22;;;;;;;27.60;18.60;;;;;;;13.79;77.53;100761.77;104709;1303;99387;-80
2022/10/30 00:04:49;;;;;;;25.90;18.40;;;;;;;13.79;77.47;100765.70;104683;1304;109494;-78
2022/10/30 00:07:17;;;;;;;26.30;18.20;;;;;;;13.77;77.50;100768.99;104532;1290;141074;-80
2022/10/30 00:09:45;;;;;;;25.60;18.30;;;;;;;13.73;77.62;100769.10;104701;1303;93256;-80
2022/10/30 00:12:12;;;;;;;27.80;17.90;;;;;;;13.74;77.72;100761.24;104559;1296;141243;-80
2022/10/30 00:14:40;;;;;;;26.90;18.10;;;;;;;13.76;77.63;100757.06;104719;1304;98601;-80
2022/10/30 00:17:08;;;;;;;27.00;18.20;;;;;;;13.79;77.54;100757.13;104583;1291;139377;-78
2022/10/30 00:19:35;;;;;;;29.30;18.60;;;;;;;13.79;77.46;100751.09;104678;1305;92019;-79
2022/10/30 00:22:03;;;;;;;28.00;18.80;;;;;;;13.74;77.66;100750.89;104722;1301;92490;-79
2022/10/30 00:24:30;;;;;;;24.40;17.40;;;;;;;13.73;77.58;100754.13;104586;1297;139150;-79
2022/10/30 00:26:57;;;;;;;26.00;18.40;;;;;;;13.73;77.71;100746.98;104732;1303;92755;-79
2022/10/30 00:29:43;;;;;;;25.50;17.90;;;;;;;13.74;77.71;100738.95;104590;1295;141427;-79
2022/10/30 00:32:28;;;;;;;26.60;18.20;;;;;;;13.74;77.64;100733.58;104664;1298;92387;-78
2022/10/30 00:34:55;;;;;;;25.00;17.10;;;;;;;13.73;77.61;100740.56;104692;1298;92198;-79
2022/10/30 00:37:23;;;;;;;24.90;16.80;;;;;;;13.74;77.72;100742.14;104587;1296;140231;-78
2022/10/30 00:39:51;;;;;;;25.90;17.40;;;;;;;13.79;77.68;100750.19;104735;1300;98406;-78
2022/10/30 00:42:19;;;;;;;25.70;17.40;;;;;;;13.81;77.51;100758.51;104599;1300;140232;-78
2022/10/30 00:44:49;;;;;;;23.50;16.80;;;;;;;13.82;77.43;100751.50;104695;1297;92294;-79
2022/10/30 00:47:24;;;;;;;25.40;17.60;;;;;;;13.79;77.44;100746.41;104588;1303;140173;-79
2022/10/30 00:50:20;;;;;;;26.10;17.20;;;;;;;13.78;77.45;100738.27;104723;1296;106704;-79
2022/10/30 00:53:17;;;;;;;25.20;17.40;;;;;;;13.77;77.50;100734.54;104630;1297;141143;-79
2022/10/30 00:56:06;;;;;;;28.60;17.50;;;;;;;13.78;77.53;100732.38;104680;1297;107249;-79
2022/10/30 00:59:08;;;;;;;26.60;18.60;;;;;;;13.77;77.70;100732.05;104690;1297;91908;-79
2022/10/30 01:01:39;;;;;;;27.10;18.50;;;;;;;13.77;77.49;100732.39;104576;1283;92336;-79
2022/10/30 01:04:07;;;;;;;26.50;18.80;;;;;;;13.75;77.51;100723.70;104680;1290;108335;-79
2022/10/30 01:06:40;;;;;;;24.20;17.50;;;;;;;13.71;77.60;100729.56;104584;1289;139665;-79
2022/10/30 01:09:08;;;;;;;26.20;18.40;;;;;;;13.73;77.46;100738.80;104724;1298;109285;-79
2022/10/30 01:11:36;;;;;;;28.10;18.90;;;;;;;13.73;77.53;100738.77;104577;1296;141886;-79
2022/10/30 01:14:07;;;;;;;26.50;18.30;;;;;;;13.73;77.59;100731.29;104632;1300;92502;-79
2022/10/30 01:16:47;;;;;;;24.70;17.50;;;;;;;13.76;77.51;100734.05;104672;1289;107709;-79
2022/10/30 01:19:27;;;;;;;24.50;18.00;;;;;;;13.77;77.42;100733.84;104561;1291;140098;-79
2022/10/30 01:22:25;;;;;;;25.30;17.50;;;;;;;13.75;77.49;100729.44;104677;1290;108596;-79
2022/10/30 01:25:13;;;;;;;27.10;18.40;;;;;;;13.71;77.69;100729.39;104573;1290;139636;-79
2022/10/30 01:28:25;;;;;;;25.60;18.70;;;;;;;13.77;77.77;100732.04;104673;1304;92042;-79
2022/10/30 01:31:07;;;;;;;24.20;18.50;;;;;;;13.82;77.49;100738.48;104574;1298;139648;-79
2022/10/30 01:33:41;;;;;;;26.10;17.40;;;;;;;13.82;77.46;100737.20;104713;1297;98824;-79
2022/10/30 01:36:21;;;;;;;27.10;17.90;;;;;;;13.83;77.53;100738.60;104544;1303;139208;-78
2022/10/30 01:38:54;;;;;;;22.60;17.10;;;;;;;13.84;77.45;100739.48;104678;1291;92995;-79
2022/10/30 01:41:40;;;;;;;24.40;17.80;;;;;;;13.86;77.44;100745.48;104545;1297;141517;-79
2022/10/30 01:44:15;;;;;;;26.00;18.80;;;;;;;13.86;77.49;100748.52;104617;1299;109054;-79
2022/10/30 01:47:09;;;;;;;28.20;17.90;;;;;;;13.85;77.36;100749.43;104599;1291;99886;-79
2022/10/30 01:49:49;;;;;;;27.70;19.30;;;;;;;13.85;77.38;100747.30;104419;1298;109275;-79
2022/10/30 01:52:31;;;;;;;28.10;18.80;;;;;;;13.81;77.45;100747.42;104663;1304;93292;-79
2022/10/30 01:55:20;;;;;;;26.70;18.50;;;;;;;13.79;77.66;100749.48;104545;1300;141841;-79
2022/10/30 01:57:58;;;;;;;27.90;19.40;;;;;;;13.81;77.69;100749.59;104652;1297;108225;-79
2022/10/30 02:00:50;;;;;;;29.40;19.40;;;;;;;13.82;77.63;100746.67;104535;1298;139168;-79
2022/10/30 02:03:19;;;;;;;29.90;19.90;;;;;;;13.84;77.63;100745.17;104596;1291;107216;-79
2022/10/30 02:05:48;;;;;;;27.90;19.80;;;;;;;13.83;77.73;100745.02;104546;1303;140829;-79
2022/10/30 02:08:35;;;;;;;28.70;20.10;;;;;;;13.83;77.63;100736.65;104638;1290;93232;-79
2022/10/30 02:11:04;;;;;;;28.50;19.50;;;;;;;13.79;77.76;100738.92;104613;1298;109345;-79
2022/10/30 02:13:37;;;;;;;26.40;19.00;;;;;;;13.79;77.81;100746.25;104496;1306;98396;-79
2022/10/30 02:16:05;;;;;;;28.40;19.60;;;;;;;13.77;77.87;100748.27;104607;1284;109159;-79
2022/10/30 02:18:33;;;;;;;28.90;19.70;;;;;;;13.73;77.98;100745.39;104481;1303;142834;-79
2022/10/30 02:21:01;;;;;;;28.50;20.00;;;;;;;13.70;78.26;100744.95;104634;1303;93112;-79
2022/10/30 02:23:29;;;;;;;29.10;19.10;;;;;;;13.68;78.28;100742.16;104547;1298;140745;-79
2022/10/30 02:25:56;;;;;;;27.10;19.20;;;;;;;13.68;78.34;100736.64;104694;1303;97979;-79
2022/10/30 02:28:26;;;;;;;28.10;19.60;;;;;;;13.67;78.39;100737.16;104610;1306;107133;-79
2022/10/30 02:31:11;;;;;;;28.80;19.40;;;;;;;13.70;78.36;100740.47;104558;1291;140809;-79
2022/10/30 02:33:44;;;;;;;25.80;19.20;;;;;;;13.73;78.29;100736.30;104748;1297;93360;-79
2022/10/30 02:36:15;;;;;;;25.10;18.30;;;;;;;13.73;78.30;100739.50;104543;1291;139439;-79
2022/10/30 02:38:43;;;;;;;27.30;18.70;;;;;;;13.74;78.15;100734.99;104653;1306;97373;-79
2022/10/30 02:41:28;;;;;;;27.30;19.20;;;;;;;13.72;78.20;100732.91;104512;1297;140280;-79
2022/10/30 02:43:56;;;;;;;28.60;18.60;;;;;;;13.71;78.30;100732.23;104617;1304;93219;-79
2022/10/30 02:46:41;;;;;;;30.10;19.40;;;;;;;13.74;78.18;100737.87;104669;1305;93376;-79
2022/10/30 02:49:10;;;;;;;27.60;18.60;;;;;;;13.76;78.16;100747.06;104548;1297;139734;-79
2022/10/30 02:51:37;;;;;;;29.80;18.90;;;;;;;13.78;78.07;100751.48;104689;1298;98406;-79
2022/10/30 02:54:05;;;;;;;28.30;18.80;;;;;;;13.79;78.05;100749.10;104569;1303;140905;-79
2022/10/30 02:56:33;;;;;;;29.40;19.10;;;;;;;13.79;78.07;100743.57;104562;1299;93330;-79
2022/10/30 02:59:00;;;;;;;28.90;18.50;;;;;;;13.80;77.94;100741.56;104658;1297;93161;-80
2022/10/30 03:01:28;;;;;;;26.30;18.60;;;;;;;13.80;77.86;100748.73;104606;1290;140303;-80
2022/10/30 03:03:57;;;;;;;27.50;19.40;;;;;;;13.81;77.97;100746.19;104666;1305;97595;-79
2022/10/30 03:06:24;;;;;;;29.10;19.40;;;;;;;13.83;77.74;100749.87;104572;1304;143861;-80
2022/10/30 03:08:52;;;;;;;25.00;18.50;;;;;;;13.83;77.78;100752.17;104733;1289;93295;-80
2022/10/30 03:11:20;;;;;;;27.50;19.50;;;;;;;13.84;77.69;100756.62;104677;1290;139267;-81
2022/10/30 03:14:05;;;;;;;27.00;18.80;;;;;;;13.85;77.74;100756.76;104786;1303;108408;-80
2022/10/30 03:16:35;;;;;;;25.50;19.10;;;;;;;13.84;77.56;100756.61;104615;1296;97666;-80
2022/10/30 03:19:04;;;;;;;27.70;19.60;;;;;;;13.82;77.74;100758.81;104475;1300;140119;-80
2022/10/30 03:21:33;;;;;;;28.00;19.10;;;;;;;13.82;77.69;100763.30;104671;1298;93148;-80
2022/10/30 03:24:00;;;;;;;26.10;19.20;;;;;;;13.83;77.80;100766.45;104617;1289;140504;-78
2022/10/30 03:26:28;;;;;;;25.40;18.40;;;;;;;13.87;77.51;100768.11;104673;1305;107859;-78
2022/10/30 03:29:02;;;;;;;25.80;18.50;;;;;;;13.87;77.45;100773.83;104576;1305;99016;-78
2022/10/30 03:31:32;;;;;;;28.10;18.90;;;;;;;13.88;77.35;100775.05;104542;1298;142313;-78
2022/10/30 03:34:18;;;;;;;26.50;19.10;;;;;;;13.87;77.23;100779.36;104685;1289;92898;-83
2022/10/30 03:36:46;;;;;;;27.00;19.60;;;;;;;13.87;77.32;100777.40;104501;1292;140340;-83
2022/10/30 03:39:31;;;;;;;26.00;18.40;;;;;;;13.86;77.21;100775.63;104715;1294;108432;-83
2022/10/30 03:42:16;;;;;;;26.20;18.50;;;;;;;13.85;77.18;100777.09;104584;1295;139674;-83
2022/10/30 03:44:45;;;;;;;27.50;19.40;;;;;;;13.85;77.14;100778.52;104660;1303;108875;-85
2022/10/30 03:47:12;;;;;;;26.20;18.60;;;;;;;13.85;77.23;100781.20;104524;1298;144139;-84
2022/10/30 03:49:43;;;;;;;29.20;19.20;;;;;;;13.86;77.03;100782.77;104678;1299;93358;-84
2022/10/30 03:52:13;;;;;;;26.50;18.80;;;;;;;13.83;77.13;100778.58;104654;1291;110193;-84
2022/10/30 03:54:58;;;;;;;28.90;18.60;;;;;;;13.80;77.27;100777.10;104587;1297;141107;-85
2022/10/30 03:57:26;;;;;;;29.50;19.40;;;;;;;13.79;77.45;100774.11;104607;1298;108643;-85
2022/10/30 04:00:05;;;;;;;27.40;19.40;;;;;;;13.80;77.51;100779.92;104562;1305;141567;-85
2022/10/30 04:02:48;;;;;;;26.40;18.60;;;;;;;13.82;77.46;100780.24;104691;1293;93129;-85
2022/10/30 04:05:18;;;;;;;26.80;19.10;;;;;;;13.83;77.34;100786.45;104474;1291;139132;-84
2022/10/30 04:07:47;;;;;;;30.70;19.70;;;;;;;13.86;77.25;100788.86;104656;1300;99212;-85
2022/10/30 04:10:34;;;;;;;26.20;18.80;;;;;;;13.82;77.27;100783.98;104662;1296;107532;-85
2022/10/30 04:13:05;;;;;;;27.30;19.20;;;;;;;13.72;77.41;100780.92;104536;1298;141379;-84
2022/10/30 04:15:52;;;;;;;27.40;19.30;;;;;;;13.69;77.85;100779.79;104681;1290;93252;-84
2022/10/30 04:18:24;;;;;;;27.60;20.00;;;;;;;13.71;77.77;100779.70;104476;1292;140684;-84
2022/10/30 04:20:53;;;;;;;29.90;19.40;;;;;;;13.76;77.76;100779.17;104677;1297;99406;-84
2022/10/30 04:23:38;;;;;;;25.70;18.80;;;;;;;13.78;77.74;100780.55;104583;1304;139304;-84
2022/10/30 04:26:23;;;;;;;26.90;19.20;;;;;;;13.77;77.64;100778.27;104672;1289;93464;-83
2022/10/30 04:28:51;;;;;;;28.30;19.90;;;;;;;13.77;77.75;100778.98;104687;1305;93539;-83
2022/10/30 04:31:19;;;;;;;24.50;18.10;;;;;;;13.79;77.80;100776.07;104561;1303;139533;-83
2022/10/30 04:33:47;;;;;;;26.30;18.60;;;;;;;13.81;77.59;100778.49;104626;1306;98841;-83
2022/10/30 04:36:33;;;;;;;27.60;20.30;;;;;;;13.79;77.55;100774.28;104571;1289;139502;-83
2022/10/30 04:39:01;;;;;;;26.10;18.30;;;;;;;13.77;77.70;100769.70;104678;1304;93228;-83
2022/10/30 04:41:29;;;;;;;27.80;19.60;;;;;;;13.76;77.63;100765.98;104535;1284;141205;-83
2022/10/30 04:44:07;;;;;;;26.40;19.30;;;;;;;13.75;77.65;100769.39;104682;1297;108972;-83
2022/10/30 04:46:35;;;;;;;29.50;20.60;;;;;;;13.74;77.63;100759.80;104608;1300;98689;-85
2022/10/30 04:49:25;;;;;;;28.50;20.50;;;;;;;13.70;77.70;100758.86;104531;1297;140398;-84
2022/10/30 04:52:10;;;;;;;29.70;20.20;;;;;;;13.70;77.83;100756.18;104715;1290;93229;-84
2022/10/30 04:54:38;;;;;;;29.00;19.70;;;;;;;13.71;77.75;100748.13;104564;1295;140045;-85
2022/10/30 04:57:23;;;;;;;29.20;20.40;;;;;;;13.70;77.80;100747.80;104636;1298;108347;-84
2022/10/30 04:59:51;;;;;;;27.40;20.50;;;;;;;13.66;77.89;100743.27;104543;1290;141579;-84
2022/10/30 05:02:37;;;;;;;27.80;20.70;;;;;;;13.66;77.96;100750.79;104729;1304;107935;-84
2022/10/30 05:05:05;;;;;;;28.00;20.10;;;;;;;13.65;78.10;100754.05;104645;1294;93658;-84
2022/10/30 05:07:32;;;;;;;30.50;20.70;;;;;;;13.64;78.03;100754.41;104573;1290;139556;-84
2022/10/30 05:10:00;;;;;;;27.40;19.50;;;;;;;13.62;78.07;100759.30;104699;1291;109666;-84
2022/10/30 05:12:28;;;;;;;26.60;19.80;;;;;;;13.59;78.14;100763.16;104552;1297;141174;-83
2022/10/30 05:14:55;;;;;;;30.00;20.10;;;;;;;13.58;78.39;100765.52;104691;1297;107897;-85
2022/10/30 05:17:41;;;;;;;29.90;18.70;;;;;;;13.58;78.44;100760.70;104616;1300;140570;-83
2022/10/30 05:20:09;;;;;;;29.40;20.30;;;;;;;13.60;78.49;100763.66;104639;1295;95003;-83
2022/10/30 05:22:41;;;;;;;25.70;18.60;;;;;;;13.62;78.46;100770.56;104657;1300;108189;-85
2022/10/30 05:25:09;;;;;;;25.60;18.70;;;;;;;13.62;78.37;100775.36;104602;1294;139629;-83
2022/10/30 05:27:59;;;;;;;26.80;18.70;;;;;;;13.59;78.44;100780.29;104608;1297;107736;-83
2022/10/30 05:30:45;;;;;;;27.00;18.80;;;;;;;13.58;78.48;100779.44;104552;1300;141675;-83
2022/10/30 05:33:53;;;;;;;26.20;18.80;;;;;;;13.60;78.56;100780.96;104704;1290;93619;-83
2022/10/30 05:36:21;;;;;;;28.30;19.80;;;;;;;13.60;78.58;100782.39;104556;1289;140341;-83
2022/10/30 05:38:49;;;;;;;27.70;18.70;;;;;;;13.57;78.57;100784.29;104673;1297;99266;-83
2022/10/30 05:41:36;;;;;;;28.80;20.10;;;;;;;13.54;78.92;100788.28;104470;1294;139945;-83
2022/10/30 05:44:04;;;;;;;28.90;20.80;;;;;;;13.59;78.70;100794.38;104642;1297;93273;-83
2022/10/30 05:46:32;;;;;;;27.00;20.00;;;;;;;13.60;78.75;100799.70;104668;1304;92937;-83
2022/10/30 05:49:10;;;;;;;28.10;20.20;;;;;;;13.60;78.65;100798.80;104561;1297;143099;-84
2022/10/30 05:51:38;;;;;;;27.50;20.00;;;;;;;13.61;78.68;100796.63;104726;1297;99441;-83
2022/10/30 05:54:25;;;;;;;26.00;19.60;;;;;;;13.63;78.60;100797.10;104580;1305;139822;-83
2022/10/30 05:57:13;;;;;;;28.30;19.40;;;;;;;13.65;78.66;100802.05;104662;1305;93249;-83
2022/10/30 05:59:41;;;;;;;29.70;20.80;;;;;;;13.68;78.50;100803.88;104537;1290;139532;-83
2022/10/30 06:02:09;;;;;;;26.90;21.00;;;;;;;13.69;78.36;100806.36;104725;1296;109105;-83
2022/10/30 06:04:37;;;;;;;28.60;21.00;;;;;;;13.70;78.46;100801.14;104643;1298;96820;-84
2022/10/30 06:07:10;;;;;;;28.60;20.20;;;;;;;13.73;78.28;100797.14;104472;1293;139425;-83
2022/10/30 06:09:37;;;;;;;25.10;18.60;;;;;;;13.74;78.12;100797.63;104661;1297;93333;-83
2022/10/30 06:12:31;;;;;;;29.40;19.30;;;;;;;13.75;78.05;100790.84;104400;1290;140351;-83
2022/10/30 06:15:13;;;;;;;26.90;19.60;;;;;;;13.74;78.28;100789.08;104711;1296;110166;-83
2022/10/30 06:17:41;;;;;;;27.30;19.60;;;;;;;13.79;78.24;100791.59;104536;1299;139586;-83
2022/10/30 06:20:38;;;;;;;28.70;20.30;;;;;;;13.80;78.03;100776.37;104658;1289;107878;-83
2022/10/30 06:23:26;;;;;;;28.00;21.50;;;;;;;13.78;78.03;100771.64;104574;1305;140624;-83
2022/10/30 06:26:16;;;;;;;27.70;19.40;;;;;;;13.79;77.96;100773.20;104475;1296;93488;-83
2022/10/30 06:28:49;;;;;;;26.50;19.80;;;;;;;13.79;77.96;100772.11;104666;1297;108784;-83
2022/10/30 06:31:17;;;;;;;29.80;20.90;;;;;;;13.82;77.99;100772.36;104592;1294;138895;-83
2022/10/30 06:34:04;;;;;;;28.20;19.10;;;;;;;13.83;77.83;100771.46;104531;1298;110261;-83
2022/10/30 06:36:33;;;;;;;24.20;18.50;;;;;;;13.80;77.69;100773.15;104549;1295;139287;-83
2022/10/30 06:39:19;;;;;;;25.80;18.80;;;;;;;13.78;77.87;100779.82;104700;1283;92886;-83
2022/10/30 06:42:05;;;;;;;27.80;19.70;;;;;;;13.81;78.06;100786.87;104504;1299;142214;-83
2022/10/30 06:44:48;;;;;;;28.70;19.40;;;;;;;13.89;77.99;100796.62;104687;1305;99868;-83
2022/10/30 06:47:16;;;;;;;26.90;18.20;;;;;;;13.93;77.74;100798.08;104546;1290;140563;-83
2022/10/30 06:49:44;;;;;;;26.50;18.70;;;;;;;13.94;77.68;100797.35;104684;1305;92955;-83
2022/10/30 06:52:12;;;;;;;24.80;18.30;;;;;;;13.92;77.71;100803.63;104658;1305;93724;-83
2022/10/30 06:54:40;;;;;;;26.00;18.70;;;;;;;13.94;77.77;100800.02;104535;1291;139144;-83
2022/10/30 06:57:31;;;;;;;25.40;18.00;;;;;;;13.93;77.75;100806.13;104486;1300;99365;-83
2022/10/30 07:00:09;;;;;;;24.80;17.20;;;;;;;13.92;77.85;100807.40;104468;1306;141294;-83
2022/10/30 07:02:57;;;;;;;26.20;17.80;;;;;;;13.94;77.72;100807.69;104693;1297;93050;-84
2022/10/30 07:05:26;;;;;;;25.30;17.90;;;;;;;13.95;77.75;100805.48;104562;1293;141337;-84
2022/10/30 07:07:55;;;;;;;25.90;18.50;;;;;;;13.97;77.83;100807.57;104605;1300;109802;-83
2022/10/30 07:10:41;;;;;;;26.70;17.10;;;;;;;14.00;77.75;100810.67;104660;1292;98069;-84
2022/10/30 07:13:22;;;;;;;26.00;18.40;;;;;;;14.04;77.69;100816.27;104554;1305;140252;-83
2022/10/30 07:16:13;;;;;;;25.80;18.30;;;;;;;14.06;77.52;100806.39;104636;1297;93278;-82
2022/10/30 07:19:01;;;;;;;26.50;18.30;;;;;;;14.06;77.66;100796.92;104563;1290;140378;-85
2022/10/30 07:21:32;;;;;;;28.00;19.00;;;;;;;14.09;77.55;100795.77;104595;1284;107926;-84
2022/10/30 07:24:00;;;;;;;26.80;19.30;;;;;;;14.12;77.67;100796.55;104642;1297;142054;-83
2022/10/30 07:26:36;;;;;;;26.30;19.00;;;;;;;14.15;77.44;100802.85;104878;1293;106191;-83
2022/10/30 07:29:24;;;;;;;26.20;19.00;;;;;;;14.16;77.41;100805.52;104697;1281;140967;-83
2022/10/30 07:32:24;;;;;;;26.00;18.70;;;;;;;14.20;77.23;100800.73;104506;1304;93668;-83
2022/10/30 07:35:18;;;;;;;23.40;18.10;;;;;;;14.22;76.76;100803.32;104390;1295;140940;-83
2022/10/30 07:38:05;;;;;;;24.80;17.50;;;;;;;14.24;76.59;100804.15;104707;1300;99622;-83
2022/10/30 07:40:43;;;;;;;23.60;16.10;;;;;;;14.27;76.28;100803.52;104694;1304;107954;-83
2022/10/30 07:43:36;;;;;;;23.30;16.30;;;;;;;14.30;76.10;100797.16;104523;1298;93327;-81
2022/10/30 07:46:36;;;;;;;25.10;17.10;;;;;;;14.39;76.14;100790.23;104600;1283;93317;-82
2022/10/30 07:49:22;;;;;;;24.60;16.40;;;;;;;14.43;75.89;100787.23;104533;1290;141536;-82
2022/10/30 07:52:15;;;;;;;22.50;16.20;;;;;;;14.46;75.57;100791.94;104704;1287;98283;-82
2022/10/30 07:54:45;;;;;;;23.50;16.20;;;;;;;14.48;75.66;100788.32;104429;1297;140586;-82
2022/10/30 07:57:38;;;;;;;23.50;16.10;;;;;;;14.49;75.79;100792.00;104588;1290;93093;-82
2022/10/30 08:00:25;;;;;;;20.40;15.20;;;;;;;14.56;75.59;100803.39;104573;1290;143257;-83
2022/10/30 08:02:59;;;;;;;22.50;14.90;;;;;;;14.55;75.43;100802.52;104613;1283;110125;-83
2022/10/30 08:05:50;;;;;;;23.00;15.40;;;;;;;14.62;75.49;100799.78;104484;1287;140350;-83
2022/10/30 08:08:27;;;;;;;21.90;14.20;;;;;;;14.68;75.04;100792.05;104648;1289;108559;-84
2022/10/30 08:11:05;;;;;;;23.80;14.20;;;;;;;14.67;74.61;100795.33;104683;1298;93191;-83
2022/10/30 08:13:33;;;;;;;34.90;23.90;;;;;;;14.70;74.74;100804.88;104588;1296;139085;-83
2022/10/30 08:16:00;;;;;;;66.20;44.30;;;;;;;14.73;74.56;100799.06;104699;1296;108542;-83
2022/10/30 08:18:28;;;;;;;23.00;15.30;;;;;;;14.74;74.41;100792.03;104579;1283;139505;-84
2022/10/30 08:20:56;;;;;;;19.90;14.00;;;;;;;14.77;74.41;100784.77;104562;1298;108171;-86
2022/10/30 08:23:41;;;;;;;20.50;14.60;;;;;;;14.82;74.41;100797.65;104619;1297;141307;-84
2022/10/30 08:26:13;;;;;;;20.10;13.30;;;;;;;14.84;74.27;100799.50;104678;1293;94137;-82
2022/10/30 08:28:41;;;;;;;21.90;13.80;;;;;;;14.90;74.16;100800.40;104652;1291;107645;-84
2022/10/30 08:31:10;;;;;;;17.90;13.60;;;;;;;14.96;74.16;100798.17;104545;1289;140843;-82
2022/10/30 08:33:56;;;;;;;18.50;13.10;;;;;;;14.98;73.78;100802.21;104711;1290;107159;-83
2022/10/30 08:36:31;;;;;;;19.30;13.60;;;;;;;14.93;73.45;100813.13;104505;1290;140662;-84
2022/10/30 08:38:59;;;;;;;20.10;13.10;;;;;;;14.94;73.72;100813.10;104698;1298;92829;-83
2022/10/30 08:41:38;;;;;;;18.90;13.30;;;;;;;14.95;73.65;100810.55;104628;1290;140646;-86
2022/10/30 08:44:06;;;;;;;19.10;13.60;;;;;;;14.94;73.56;100807.92;104655;1303;97849;-85
2022/10/30 08:47:00;;;;;;;18.80;12.90;;;;;;;14.93;73.67;100802.95;104481;1288;107504;-83
2022/10/30 08:49:28;;;;;;;20.90;13.90;;;;;;;14.93;73.66;100811.52;104536;1301;139261;-83
2022/10/30 08:51:56;;;;;;;19.90;13.70;;;;;;;14.98;73.70;100810.42;104679;1296;93409;-83
2022/10/30 08:54:25;;;;;;;22.40;14.50;;;;;;;15.06;73.79;100809.05;104627;1298;139847;-83
2022/10/30 08:56:54;;;;;;;19.00;13.40;;;;;;;15.20;73.73;100808.54;104623;1300;99152;-83
2022/10/30 08:59:22;;;;;;;19.60;13.90;;;;;;;15.28;73.53;100798.02;104547;1291;139321;-82
2022/10/30 09:02:09;;;;;;;19.10;12.90;;;;;;;15.32;73.05;100795.56;104664;1286;92855;-84
2022/10/30 09:04:36;;;;;;;19.70;13.70;;;;;;;15.32;72.86;100789.29;104733;1289;93320;-83
2022/10/30 09:07:23;;;;;;;22.20;14.00;;;;;;;15.37;72.98;100795.14;104621;1289;140752;-82
2022/10/30 09:10:09;;;;;;;18.80;13.10;;;;;;;15.43;72.71;100799.75;104736;1297;97966;-83
2022/10/30 09:12:38;;;;;;;19.00;13.40;;;;;;;15.39;72.26;100800.45;104450;1294;142064;-85
2022/10/30 09:15:06;;;;;;;19.60;13.50;;;;;;;15.38;72.27;100807.80;104705;1290;93312;-83
2022/10/30 09:17:41;;;;;;;19.80;13.50;;;;;;;15.40;72.42;100808.81;104556;1296;140519;-82
2022/10/30 09:20:09;;;;;;;20.30;13.70;;;;;;;15.45;72.37;100804.48;104682;1296;109718;-82
2022/10/30 09:22:41;;;;;;;18.70;13.40;;;;;;;15.50;72.07;100806.27;104640;1289;99320;-87
2022/10/30 09:25:09;;;;;;;18.60;12.90;;;;;;;15.50;71.62;100800.02;104509;1291;140554;-83
2022/10/30 09:27:57;;;;;;;20.70;13.20;;;;;;;15.51;71.80;100798.02;104634;1296;93256;-83
2022/10/30 09:30:26;;;;;;;17.80;12.50;;;;;;;15.51;71.45;100797.30;104492;1291;140784;-82
2022/10/30 09:33:00;;;;;;;18.10;12.50;;;;;;;15.53;71.31;100798.44;104589;1290;109538;-82
2022/10/30 09:35:45;;;;;;;19.80;12.50;;;;;;;15.56;71.45;100809.80;104401;1289;140849;-82
2022/10/30 09:38:31;;;;;;;17.70;12.00;;;;;;;15.58;71.25;100803.81;104628;1302;107459;-82
2022/10/30 09:41:18;;;;;;;19.10;12.20;;;;;;;15.59;71.05;100801.43;104663;1297;93579;-83
2022/10/30 09:43:55;;;;;;;18.70;11.90;;;;;;;15.53;70.68;100805.23;104514;1290;92897;-83
2022/10/30 09:46:43;;;;;;;16.30;10.90;;;;;;;15.45;70.56;100812.92;104385;1287;107766;-83
2022/10/30 09:49:49;;;;;;;17.00;10.90;;;;;;;15.44;70.86;100817.78;104314;1280;139445;-82
2022/10/30 09:52:25;;;;;;;15.30;9.60;;;;;;;15.42;70.04;100818.91;103555;1298;106628;-84
2022/10/30 09:55:32;;;;;;;15.40;9.10;;;;;;;15.36;69.35;100821.51;103439;1292;141268;-84
2022/10/30 09:58:24;;;;;;;26.00;17.20;;;;;;;15.31;69.47;100812.20;104218;1288;95071;-83
2022/10/30 10:01:10;;;;;;;14.10;8.50;;;;;;;15.29;69.00;100806.21;104336;1283;140745;-86
2022/10/30 10:04:02;;;;;;;14.20;8.20;;;;;;;15.28;68.70;100805.55;104486;1289;97971;-84
2022/10/30 10:06:45;;;;;;;19.40;8.10;;;;;;;15.30;68.99;100802.41;104462;1287;140686;-84
2022/10/30 10:09:43;;;;;;;16.50;9.00;;;;;;;15.33;68.69;100795.11;104330;1283;94905;-84
2022/10/30 10:12:27;;;;;;;13.30;8.00;;;;;;;15.39;68.76;100797.41;104343;1297;140125;-83
2022/10/30 10:14:58;;;;;;;15.10;8.50;;;;;;;15.44;68.66;100805.62;104633;1290;108828;-85
2022/10/30 10:17:32;;;;;;;12.90;8.70;;;;;;;15.51;68.45;100809.27;104549;1283;139273;-83
2022/10/30 10:20:01;;;;;;;13.60;8.40;;;;;;;15.54;68.38;100809.31;104648;1296;107179;-81
2022/10/30 10:22:31;;;;;;;15.30;10.20;;;;;;;15.54;67.88;100806.48;104715;1287;93684;-88
2022/10/30 10:25:08;;;;;;;14.30;10.50;;;;;;;15.52;67.38;100803.33;104535;1290;140042;-82
2022/10/30 10:27:38;;;;;;;13.30;10.30;;;;;;;15.53;67.58;100806.86;104643;1290;109767;-84
2022/10/30 10:30:16;;;;;;;14.10;10.60;;;;;;;15.57;67.36;100807.98;104575;1294;140991;-81
2022/10/30 10:33:14;;;;;;;12.60;9.90;;;;;;;15.57;67.12;100812.42;104669;1298;106990;-82
2022/10/30 10:36:19;;;;;;;14.50;10.10;;;;;;;15.62;67.63;100805.23;104552;1289;141253;-82
2022/10/30 10:38:50;;;;;;;12.30;9.00;;;;;;;15.67;67.46;100806.48;104699;1291;93160;-83
2022/10/30 10:41:57;;;;;;;12.80;9.40;;;;;;;15.74;67.24;100809.95;104579;1290;140853;-82
2022/10/30 10:44:33;;;;;;;12.30;8.40;;;;;;;15.80;67.05;100811.88;104707;1291;97911;-82
2022/10/30 10:47:19;;;;;;;12.30;8.40;;;;;;;15.82;67.19;100809.67;104703;1290;108671;-83
2022/10/30 10:49:56;;;;;;;12.20;8.40;;;;;;;15.82;66.78;100803.39;104596;1290;93343;-83
2022/10/30 10:52:56;;;;;;;13.20;8.40;;;;;;;15.80;66.31;100798.26;104668;1290;93325;-84
2022/10/30 10:55:48;;;;;;;11.90;7.90;;;;;;;15.87;66.60;100790.13;104500;1289;140548;-86
2022/10/30 10:58:24;;;;;;;10.80;7.70;;;;;;;15.91;66.23;100790.30;104600;1287;98346;-85
2022/10/30 11:00:56;;;;;;;10.80;6.70;;;;;;;15.92;65.70;100793.52;104571;1290;139671;-85
2022/10/30 11:03:44;;;;;;;10.70;6.80;;;;;;;15.95;64.96;100797.84;104719;1291;93415;-88
2022/10/30 11:06:23;;;;;;;9.60;6.70;;;;;;;15.95;63.96;100797.85;104548;1289;140730;-84
2022/10/30 11:08:55;;;;;;;10.10;6.90;;;;;;;15.92;64.15;100790.06;104726;1291;109577;-85
2022/10/30 11:11:23;;;;;;;16.30;11.30;;;;;;;15.92;63.88;100786.88;104637;1289;139795;-84
2022/10/30 11:13:51;;;;;;;13.70;8.70;;;;;;;15.90;63.99;100782.13;104796;1296;106545;-84
2022/10/30 11:16:35;;;;;;;9.10;6.60;;;;;;;15.85;63.15;100783.73;104775;1297;93101;-84
2022/10/30 11:19:06;;;;;;;12.30;6.50;;;;;;;15.78;63.24;100778.27;104620;1298;138872;-83
2022/10/30 11:21:40;;;;;;;10.40;5.70;;;;;;;15.76;63.52;100783.19;104687;1291;109601;-85
2022/10/30 11:24:34;;;;;;;10.80;6.20;;;;;;;15.73;63.41;100776.52;104466;1287;139747;-83
2022/10/30 11:27:24;;;;;;;9.60;6.90;;;;;;;15.72;63.20;100767.43;104692;1289;106900;-83
2022/10/30 11:30:18;;;;;;;9.20;5.80;;;;;;;15.72;63.53;100771.73;104594;1297;140161;-81
2022/10/30 11:32:46;;;;;;;10.10;6.70;;;;;;;15.68;63.48;100780.45;104710;1291;93341;-81
2022/10/30 11:35:17;;;;;;;9.80;5.90;;;;;;;15.66;63.54;100781.83;104722;1296;109205;-80
2022/10/30 11:38:18;;;;;;;10.40;6.70;;;;;;;15.63;63.63;100784.28;104685;1292;98473;-83
2022/10/30 11:40:50;;;;;;;9.80;6.60;;;;;;;15.62;63.45;100786.83;104708;1297;108118;-80
2022/10/30 11:43:22;;;;;;;10.30;6.80;;;;;;;15.61;63.91;100789.73;104706;1289;139003;-81